createdAt,value
2023-02-17T00:00:13.065Z,25.25
2023-02-17T00:02:41.278Z,31.88
2023-02-17T00:05:10.441Z,23.58
2023-02-17T00:07:39.352Z,23.80
2023-02-17T00:10:09.165Z,29.08
2023-02-17T00:12:37.625Z,25.95
2023-02-17T00:15:09.485Z,23.17
2023-02-17T00:17:38.708Z,22.17
2023-02-17T00:20:07.832Z,24.92
2023-02-17T00:22:36.722Z,26.92
2023-02-17T00:25:05.522Z,23.52
2023-02-17T00:27:34.814Z,23.35
2023-02-17T00:30:04.022Z,26.52
2023-02-17T00:32:32.582Z,26.50
2023-02-17T00:35:00.736Z,24.25
2023-02-17T00:37:28.879Z,24.77
2023-02-17T00:39:57.490Z,24.13
2023-02-17T00:42:25.648Z,28.42
2023-02-17T00:44:53.884Z,21.65
2023-02-17T00:47:21.953Z,25.10
2023-02-17T00:49:52.622Z,24.52
2023-02-17T00:52:21.422Z,26.75
2023-02-17T00:54:49.806Z,26.02
2023-02-17T00:57:18.622Z,23.33
2023-02-17T00:59:47.247Z,25.02
2023-02-17T01:02:16.046Z,19.45
2023-02-17T01:04:44.045Z,29.92
2023-02-17T01:07:16.284Z,24.40
2023-02-17T01:09:44.552Z,24.48
2023-02-17T01:12:16.108Z,27.42
2023-02-17T01:14:44.028Z,29.77
2023-02-17T01:17:14.395Z,26.85
2023-02-17T01:19:43.523Z,27.77
2023-02-17T01:22:11.592Z,36.38
2023-02-17T01:24:40.525Z,33.40
2023-02-17T01:27:08.568Z,34.00
2023-02-17T01:29:37.411Z,31.08
2023-02-17T01:32:07.640Z,31.15
2023-02-17T01:34:38.101Z,31.95
2023-02-17T01:37:07.806Z,39.03
2023-02-17T01:39:39.854Z,34.25
2023-02-17T01:42:21.008Z,27.75
2023-02-17T01:45:17.747Z,31.38
2023-02-17T01:47:49.755Z,29.33
2023-02-17T01:50:19.744Z,32.95
2023-02-17T01:52:47.756Z,31.35
2023-02-17T01:55:17.381Z,25.90
2023-02-17T01:57:45.362Z,31.00
2023-02-17T02:00:13.771Z,35.67
2023-02-17T02:02:42.966Z,34.00
2023-02-17T02:05:15.112Z,38.38
2023-02-17T02:07:46.466Z,50.00
2023-02-17T02:10:15.033Z,41.70
2023-02-17T02:12:44.027Z,47.65
2023-02-17T02:15:20.743Z,41.63
2023-02-17T02:18:07.690Z,47.38
2023-02-17T02:20:41.857Z,39.17
2023-02-17T02:23:32.037Z,39.47
2023-02-17T02:26:12.992Z,37.13
2023-02-17T02:28:44.244Z,39.03
2023-02-17T02:31:31.193Z,36.15
2023-02-17T02:34:12.643Z,35.55
2023-02-17T02:36:46.449Z,35.83
2023-02-17T02:39:20.054Z,34.10
2023-02-17T02:41:49.082Z,29.80
2023-02-17T02:44:19.610Z,29.55
2023-02-17T02:47:02.504Z,28.83
2023-02-17T02:49:36.298Z,25.33
2023-02-17T02:52:05.356Z,39.03
2023-02-17T02:54:42.258Z,30.27
2023-02-17T02:57:38.454Z,35.67
2023-02-17T03:00:24.476Z,38.72
2023-02-17T03:02:55.468Z,36.55
2023-02-17T03:06:11.830Z,34.58
2023-02-17T03:08:53.911Z,35.03
2023-02-17T03:11:34.041Z,27.77
2023-02-17T03:14:22.944Z,31.08
2023-02-17T03:16:51.715Z,31.75
2023-02-17T03:19:22.903Z,24.13
2023-02-17T03:22:00.279Z,29.45
2023-02-17T03:24:28.797Z,31.27
2023-02-17T03:26:57.611Z,24.20
2023-02-17T03:29:29.326Z,28.73
2023-02-17T03:31:58.355Z,36.00
2023-02-17T03:34:26.510Z,30.67
2023-02-17T03:36:55.606Z,27.95
2023-02-17T03:39:24.215Z,27.92
2023-02-17T03:41:52.733Z,25.63
2023-02-17T03:44:25.816Z,23.83
2023-02-17T03:46:55.526Z,30.85
2023-02-17T03:49:23.482Z,28.73
2023-02-17T03:51:51.621Z,28.50
2023-02-17T03:54:19.598Z,28.30
2023-02-17T03:56:47.763Z,29.00
2023-02-17T03:59:17.084Z,37.97
2023-02-17T04:01:47.832Z,34.47
2023-02-17T04:04:15.946Z,39.40
2023-02-17T04:06:44.615Z,37.95
2023-02-17T04:09:12.697Z,33.53
2023-02-17T04:11:43.409Z,40.33
2023-02-17T04:14:12.660Z,32.22
2023-02-17T04:16:40.618Z,32.97
2023-02-17T04:19:08.735Z,29.45
2023-02-17T04:21:36.907Z,37.05
2023-02-17T04:24:05.855Z,40.47
2023-02-17T04:26:34.245Z,30.15
2023-02-17T04:29:04.773Z,40.38
2023-02-17T04:31:33.766Z,31.88
2023-02-17T04:34:02.377Z,24.63
2023-02-17T04:36:31.387Z,31.88
2023-02-17T04:38:59.254Z,29.48
2023-02-17T04:41:27.437Z,34.83
2023-02-17T04:43:55.200Z,29.00
2023-02-17T04:46:23.710Z,26.52
2023-02-17T04:48:51.782Z,26.92
2023-02-17T04:51:21.224Z,25.77
2023-02-17T04:53:50.490Z,20.35
2023-02-17T04:56:18.616Z,21.65
2023-02-17T04:58:47.686Z,22.40
2023-02-17T05:01:15.849Z,21.52
2023-02-17T05:03:44.062Z,27.08
2023-02-17T05:06:12.745Z,21.60
2023-02-17T05:08:43.040Z,21.77
2023-02-17T05:11:11.196Z,21.23
2023-02-17T05:13:39.112Z,20.45
2023-02-17T05:16:10.807Z,23.60
2023-02-17T05:18:42.997Z,18.67
2023-02-17T05:21:43.231Z,18.38
2023-02-17T05:24:11.500Z,21.20
2023-02-17T05:26:43.141Z,19.13
2023-02-17T05:29:11.258Z,20.70
2023-02-17T05:31:39.482Z,17.70
2023-02-17T05:34:08.589Z,18.35
2023-02-17T05:36:37.143Z,21.80
2023-02-17T05:39:06.495Z,19.67
2023-02-17T05:41:35.750Z,19.13
2023-02-17T05:44:04.125Z,25.50
2023-02-17T05:46:33.607Z,19.73
2023-02-17T05:49:01.589Z,17.08
2023-02-17T05:51:30.782Z,23.13
2023-02-17T05:54:01.360Z,18.52
2023-02-17T05:56:29.655Z,19.15
2023-02-17T05:58:58.534Z,17.15
2023-02-17T06:01:27.445Z,18.73
2023-02-17T06:03:56.932Z,26.02
2023-02-17T06:06:25.043Z,17.30
2023-02-17T06:08:53.245Z,15.88
2023-02-17T06:11:21.408Z,13.65
2023-02-17T06:13:49.511Z,11.85
2023-02-17T06:16:19.797Z,12.68
2023-02-17T06:18:51.493Z,14.70
2023-02-17T06:21:19.418Z,13.77
2023-02-17T06:23:47.918Z,14.75
2023-02-17T06:26:19.097Z,20.23
2023-02-17T06:28:47.384Z,15.90
2023-02-17T06:31:19.138Z,17.77
2023-02-17T06:33:48.901Z,14.60
2023-02-17T06:36:17.104Z,14.60
2023-02-17T06:38:45.121Z,20.13
2023-02-17T06:41:13.361Z,15.88
2023-02-17T06:43:41.678Z,17.25
2023-02-17T06:46:12.181Z,19.25
2023-02-17T06:48:41.433Z,15.27
2023-02-17T06:51:10.607Z,16.75
2023-02-17T06:53:38.693Z,13.35
2023-02-17T06:56:07.638Z,20.63
2023-02-17T06:58:37.351Z,17.80
2023-02-17T07:01:20.678Z,15.07
2023-02-17T07:03:50.186Z,14.77
2023-02-17T07:06:20.036Z,15.13
2023-02-17T07:08:47.996Z,18.05
2023-02-17T07:11:17.171Z,16.95
2023-02-17T07:13:48.415Z,17.17
2023-02-17T07:16:16.920Z,15.23
2023-02-17T07:18:56.002Z,16.77
2023-02-17T07:21:29.138Z,15.18
2023-02-17T07:23:57.815Z,14.20
2023-02-17T07:26:25.806Z,15.23
2023-02-17T07:28:54.041Z,17.17
2023-02-17T07:31:24.097Z,15.25
2023-02-17T07:33:53.523Z,16.42
2023-02-17T07:36:23.053Z,17.17
2023-02-17T07:38:51.880Z,16.58
2023-02-17T07:41:21.194Z,16.98
2023-02-17T07:43:49.908Z,14.52
2023-02-17T07:46:18.525Z,16.20
2023-02-17T07:48:47.991Z,14.43
2023-02-17T07:51:18.145Z,12.45
2023-02-17T07:53:47.365Z,15.13
2023-02-17T07:56:19.482Z,12.02
2023-02-17T07:58:48.241Z,17.92
2023-02-17T08:01:22.541Z,15.00
2023-02-17T08:03:50.796Z,14.60
2023-02-17T08:06:23.759Z,12.82
2023-02-17T08:09:11.658Z,11.48
2023-02-17T08:12:00.746Z,21.17
2023-02-17T08:14:31.663Z,10.70
2023-02-17T08:17:00.557Z,15.02
2023-02-17T08:19:39.637Z,11.20
2023-02-17T08:22:14.475Z,12.45
2023-02-17T08:24:44.262Z,14.10
2023-02-17T08:27:13.578Z,15.15
2023-02-17T08:29:56.558Z,17.58
2023-02-17T08:32:28.458Z,11.90
2023-02-17T08:34:58.161Z,10.88
2023-02-17T08:37:26.585Z,11.90
2023-02-17T08:40:00.466Z,13.15
2023-02-17T08:42:49.275Z,13.55
2023-02-17T08:45:24.883Z,14.98
2023-02-17T08:47:55.403Z,17.58
2023-02-17T08:50:24.237Z,25.67
2023-02-17T08:52:53.114Z,17.02
2023-02-17T08:55:23.982Z,14.63
2023-02-17T08:57:52.191Z,22.88
2023-02-17T09:00:20.739Z,14.80
2023-02-17T09:02:50.957Z,17.30
2023-02-17T09:05:19.595Z,12.25
2023-02-17T09:07:49.672Z,13.20
2023-02-17T09:10:24.112Z,12.45
2023-02-17T09:12:53.488Z,14.30
2023-02-17T09:15:21.841Z,17.17
2023-02-17T09:17:51.106Z,14.18
2023-02-17T09:20:28.726Z,11.52
2023-02-17T09:23:29.002Z,13.85
2023-02-17T09:26:09.379Z,16.08
2023-02-17T09:28:39.592Z,11.98
2023-02-17T09:31:19.502Z,16.92
2023-02-17T09:33:48.406Z,14.50
2023-02-17T09:36:21.163Z,16.90
2023-02-17T09:38:49.750Z,12.73
2023-02-17T09:41:56.868Z,12.13
2023-02-17T09:45:06.094Z,14.38
2023-02-17T09:48:48.872Z,13.38
2023-02-17T09:51:42.595Z,15.88
2023-02-17T09:54:17.422Z,16.27
2023-02-17T09:56:49.762Z,15.10
2023-02-17T09:59:28.645Z,12.68
2023-02-17T10:01:57.314Z,15.98
2023-02-17T10:04:47.183Z,11.23
2023-02-17T10:07:34.583Z,14.30
2023-02-17T10:10:28.616Z,10.13
2023-02-17T10:21:49.436Z,16.05
2023-02-17T10:24:21.748Z,14.52
2023-02-17T10:27:32.384Z,12.63
2023-02-17T10:30:23.464Z,14.10
2023-02-17T10:33:02.238Z,17.85
2023-02-17T10:36:23.287Z,13.60
2023-02-17T10:39:01.700Z,13.90
2023-02-17T10:42:04.748Z,12.00
2023-02-17T10:44:37.498Z,11.43
2023-02-17T10:47:09.567Z,11.60
2023-02-17T10:49:43.721Z,20.20
2023-02-17T10:52:43.211Z,17.48
2023-02-17T10:55:33.785Z,18.55
2023-02-17T10:58:18.467Z,24.33
2023-02-17T11:00:54.367Z,18.20
2023-02-17T11:03:27.908Z,16.27
2023-02-17T11:06:15.264Z,20.27
2023-02-17T11:08:51.101Z,17.85
2023-02-17T11:11:32.906Z,15.63
2023-02-17T11:14:18.833Z,19.88
2023-02-17T11:16:52.947Z,16.13
2023-02-17T11:19:31.095Z,19.38
2023-02-17T11:22:02.898Z,15.85
2023-02-17T11:24:38.961Z,14.20
2023-02-17T11:27:11.437Z,15.85
2023-02-17T11:29:43.423Z,15.98
2023-02-17T11:32:14.002Z,15.68
2023-02-17T11:34:57.269Z,16.95
2023-02-17T11:37:28.010Z,20.25
2023-02-17T11:39:56.702Z,10.23
2023-02-17T11:42:33.726Z,16.50
2023-02-17T11:45:19.165Z,19.35
2023-02-17T11:48:10.489Z,16.73
2023-02-17T11:50:58.456Z,17.75
2023-02-17T11:54:12.401Z,12.25
2023-02-17T11:57:48.055Z,24.98
2023-02-17T12:00:18.471Z,14.70
2023-02-17T12:02:52.402Z,20.67
2023-02-17T12:05:42.685Z,29.60
2023-02-17T12:08:11.517Z,22.85
2023-02-17T12:11:33.740Z,25.73
2023-02-17T12:14:39.884Z,26.38
2023-02-17T12:17:18.046Z,27.50
2023-02-17T12:19:47.746Z,38.50
2023-02-17T12:22:44.309Z,33.47
2023-02-17T12:25:39.671Z,34.15
2023-02-17T12:28:19.029Z,42.42
2023-02-17T12:31:19.822Z,36.15
2023-02-17T12:34:02.781Z,44.63
2023-02-17T12:36:34.274Z,45.22
2023-02-17T12:39:25.037Z,35.03
2023-02-17T12:42:05.271Z,32.78
2023-02-17T12:44:42.587Z,42.33
2023-02-17T12:47:16.489Z,41.08
2023-02-17T12:50:22.953Z,44.65
2023-02-17T12:52:53.106Z,36.25
2023-02-17T12:56:14.172Z,31.23
2023-02-17T12:58:42.610Z,32.47
2023-02-17T13:01:18.845Z,38.13
2023-02-17T13:03:50.596Z,42.33
2023-02-17T13:06:32.762Z,36.70
2023-02-17T13:09:35.074Z,32.40
2023-02-17T13:12:25.081Z,32.13
2023-02-17T13:14:59.786Z,35.63
2023-02-17T13:17:39.698Z,30.85
2023-02-17T13:20:08.087Z,34.03
2023-02-17T13:22:37.428Z,30.58
2023-02-17T13:25:06.248Z,32.88
2023-02-17T13:27:36.799Z,34.58
2023-02-17T13:30:17.970Z,49.22
2023-02-17T13:33:22.640Z,58.38
2023-02-17T13:35:51.148Z,57.03
2023-02-17T13:38:57.789Z,57.42
2023-02-17T13:41:27.313Z,48.70
2023-02-17T13:43:56.774Z,41.90
2023-02-17T13:46:28.541Z,34.05
2023-02-17T13:49:05.387Z,45.67
2023-02-17T13:51:35.651Z,54.63
2023-02-17T13:54:08.105Z,58.83
2023-02-17T13:56:39.127Z,56.95
2023-02-17T13:59:13.025Z,68.28
2023-02-17T14:01:42.961Z,55.03
2023-02-17T14:04:23.928Z,44.55
2023-02-17T14:06:53.261Z,41.38
2023-02-17T14:09:26.121Z,33.53
2023-02-17T14:11:59.626Z,34.60
2023-02-17T14:14:40.615Z,38.35
2023-02-17T14:17:16.151Z,47.67
2023-02-17T14:19:46.735Z,41.53
2023-02-17T14:22:30.456Z,34.05
2023-02-17T14:25:00.607Z,40.10
2023-02-17T14:27:30.328Z,55.00
2023-02-17T14:30:02.807Z,40.08
2023-02-17T14:32:36.819Z,60.92
2023-02-17T14:35:19.768Z,56.20
2023-02-17T14:37:54.140Z,44.55
2023-02-17T14:40:29.487Z,35.13
2023-02-17T14:43:17.724Z,52.83
2023-02-17T14:45:54.804Z,34.90
2023-02-17T14:48:27.722Z,26.40
2023-02-17T14:51:39.196Z,30.52
2023-02-17T14:54:16.667Z,36.92
2023-02-17T14:57:06.331Z,40.58
2023-02-17T14:59:36.617Z,44.65
2023-02-17T15:02:21.376Z,41.05
2023-02-17T15:04:51.652Z,46.75
2023-02-17T15:07:23.444Z,39.70
2023-02-17T15:10:00.495Z,39.65
2023-02-17T15:12:31.540Z,44.17
2023-02-17T15:15:31.609Z,44.35
2023-02-17T15:18:08.264Z,44.55
2023-02-17T15:20:41.256Z,46.00
2023-02-17T15:23:15.728Z,42.70
2023-02-17T15:25:56.910Z,39.00
2023-02-17T15:29:33.842Z,33.22
2023-02-17T15:32:08.358Z,38.53
2023-02-17T15:34:41.324Z,36.05
2023-02-17T15:37:52.124Z,35.33
2023-02-17T15:49:35.197Z,33.90
2023-02-17T15:57:10.926Z,34.13
2023-02-17T16:00:14.089Z,28.48
2023-02-17T16:03:16.632Z,35.50
2023-02-17T16:06:21.104Z,37.15
2023-02-17T16:10:52.381Z,41.10
2023-02-17T16:14:24.758Z,34.55
2023-02-17T16:16:59.483Z,37.30
2023-02-17T16:19:29.621Z,35.47
2023-02-17T16:22:05.133Z,32.63
2023-02-17T16:24:43.546Z,33.55
2023-02-17T16:27:28.652Z,34.42
2023-02-17T16:33:12.842Z,33.53
2023-02-17T16:35:51.920Z,31.35
2023-02-17T16:38:26.558Z,29.42
2023-02-17T16:41:18.567Z,34.05
2023-02-17T16:43:48.963Z,27.75
2023-02-17T16:46:30.050Z,38.75
2023-02-17T16:49:00.296Z,38.85
2023-02-17T16:51:35.685Z,34.95
2023-02-17T16:54:04.212Z,33.83
2023-02-17T16:56:36.382Z,31.95
2023-02-17T16:59:05.410Z,44.15
2023-02-17T17:01:33.569Z,30.35
2023-02-17T17:04:01.823Z,38.35
2023-02-17T17:06:30.696Z,37.72
2023-02-17T17:08:59.038Z,34.60
2023-02-17T17:11:29.393Z,33.97
2023-02-17T17:13:57.549Z,36.05
2023-02-17T17:16:28.451Z,36.20
2023-02-17T17:18:59.572Z,42.75
2023-02-17T17:21:29.916Z,47.22
2023-02-17T17:23:59.116Z,39.67
2023-02-17T17:26:40.242Z,36.40
2023-02-17T17:29:13.553Z,37.42
2023-02-17T17:31:42.036Z,38.80
2023-02-17T17:34:10.583Z,39.08
2023-02-17T17:36:43.674Z,32.90
2023-02-17T17:39:23.154Z,35.03
2023-02-17T17:41:51.845Z,35.08
2023-02-17T17:44:20.963Z,36.67
2023-02-17T17:46:49.650Z,31.23
2023-02-17T17:49:18.815Z,35.78
2023-02-17T17:51:48.158Z,34.92
2023-02-17T17:54:16.392Z,33.03
2023-02-17T17:56:46.202Z,28.77
2023-02-17T17:59:17.304Z,30.83
2023-02-17T18:01:46.770Z,34.85
2023-02-17T18:04:15.110Z,27.08
2023-02-17T18:06:48.068Z,37.15
2023-02-17T18:09:30.768Z,36.53
2023-02-17T18:12:13.349Z,33.25
2023-02-17T18:14:42.926Z,35.85
2023-02-17T18:17:13.175Z,34.33
2023-02-17T18:19:42.360Z,33.38
2023-02-17T18:22:13.791Z,30.60
2023-02-17T18:24:47.601Z,30.98
2023-02-17T18:27:16.800Z,34.28
2023-02-17T18:29:45.689Z,37.05
2023-02-17T18:32:49.190Z,24.50
2023-02-17T18:35:20.931Z,29.90
2023-02-17T18:37:49.628Z,33.55
2023-02-17T18:41:23.662Z,26.52
2023-02-17T18:43:57.835Z,27.50
2023-02-17T18:46:27.330Z,26.98
2023-02-17T18:48:56.920Z,31.52
2023-02-17T18:51:34.707Z,30.55
2023-02-17T18:54:21.690Z,30.20
2023-02-17T18:56:50.831Z,30.77
2023-02-17T18:59:19.992Z,32.47
2023-02-17T19:01:55.890Z,34.22
2023-02-17T19:04:38.389Z,38.05
2023-02-17T19:07:17.809Z,36.13
2023-02-17T19:09:46.893Z,39.20
2023-02-17T19:12:18.965Z,35.38
2023-02-17T19:14:56.193Z,31.08
2023-02-17T19:17:25.938Z,36.58
2023-02-17T19:20:33.220Z,43.00
2023-02-17T19:23:42.800Z,55.30
2023-02-17T19:27:04.161Z,60.25
2023-02-17T19:30:10.045Z,52.72
2023-02-17T19:32:46.740Z,61.95
2023-02-17T19:35:30.630Z,38.90
2023-02-17T19:38:21.999Z,43.65
2023-02-17T19:40:51.978Z,44.08
2023-02-17T19:43:21.815Z,46.45
2023-02-17T19:45:53.881Z,44.90
2023-02-17T19:48:27.536Z,50.88
2023-02-17T19:51:03.454Z,41.22
2023-02-17T19:53:54.326Z,39.92
2023-02-17T19:56:35.484Z,41.10
2023-02-17T19:59:04.669Z,43.78
2023-02-17T20:01:34.115Z,52.72
2023-02-17T20:04:04.859Z,63.13
2023-02-17T20:11:34.722Z,58.50
2023-02-17T20:14:03.254Z,53.35
2023-02-17T20:16:44.288Z,56.03
2023-02-17T20:19:16.155Z,58.45
2023-02-17T20:22:06.437Z,67.05
2023-02-17T20:27:51.586Z,65.18
2023-02-17T20:30:20.461Z,62.92
2023-02-17T20:32:50.884Z,71.00
2023-02-17T20:35:20.264Z,58.58
2023-02-17T20:37:52.712Z,65.28
2023-02-17T20:40:25.677Z,55.13
2023-02-17T20:43:10.735Z,57.35
2023-02-17T20:45:52.151Z,57.20
2023-02-17T20:48:57.424Z,64.22
2023-02-17T20:51:49.904Z,83.82
2023-02-17T20:54:29.317Z,72.22
2023-02-17T20:57:01.176Z,71.30
2023-02-17T20:59:34.731Z,82.13
2023-02-17T21:02:03.079Z,79.45
2023-02-17T21:04:40.913Z,67.90
2023-02-17T21:07:15.477Z,75.22
2023-02-17T21:09:57.891Z,79.22
2023-02-17T21:12:26.709Z,84.32
2023-02-17T21:17:43.684Z,77.28
2023-02-17T21:20:15.624Z,72.45
2023-02-17T21:22:45.192Z,59.95
2023-02-17T21:25:24.846Z,60.78
2023-02-17T21:28:28.555Z,61.90
2023-02-17T21:30:56.689Z,59.72
2023-02-17T21:33:42.311Z,59.67
2023-02-17T21:36:44.811Z,53.42
2023-02-17T21:39:26.681Z,55.88
2023-02-17T21:42:45.976Z,53.53
2023-02-17T21:45:16.443Z,48.38
2023-02-17T21:47:45.820Z,59.33
2023-02-17T21:50:15.809Z,45.58
2023-02-17T21:52:57.296Z,52.13
2023-02-17T21:55:26.673Z,51.30
2023-02-17T21:58:02.524Z,47.03
2023-02-17T22:00:32.393Z,50.28
2023-02-17T22:03:00.396Z,46.38
2023-02-17T22:06:23.058Z,48.10
2023-02-17T22:08:54.014Z,39.92
2023-02-17T22:11:34.956Z,40.47
2023-02-17T22:18:32.904Z,48.30
2023-02-17T22:21:06.676Z,46.47
2023-02-17T22:23:37.523Z,40.90
2023-02-17T22:26:40.468Z,41.95
2023-02-17T22:29:42.602Z,45.13
2023-02-17T22:32:12.729Z,44.38
2023-02-17T22:34:46.381Z,51.25
2023-02-17T22:37:14.884Z,47.53
2023-02-17T22:39:47.568Z,42.88
2023-02-17T22:42:19.308Z,50.25
2023-02-17T22:44:47.774Z,44.15
2023-02-17T22:47:17.072Z,45.13
2023-02-17T22:49:49.174Z,48.70
2023-02-17T22:52:17.306Z,45.13
2023-02-17T22:54:45.505Z,46.88
2023-02-17T22:57:13.941Z,51.08
2023-02-17T23:00:02.380Z,44.88
2023-02-17T23:02:36.788Z,44.33
2023-02-17T23:05:05.601Z,45.03
2023-02-17T23:07:47.445Z,44.60
2023-02-17T23:10:24.075Z,46.90
2023-02-17T23:12:54.818Z,45.00
2023-02-17T23:15:39.551Z,44.17
2023-02-17T23:18:11.797Z,44.55
2023-02-17T23:20:42.947Z,43.33
2023-02-17T23:23:21.164Z,45.47
2023-02-17T23:25:53.954Z,39.78
2023-02-17T23:28:23.944Z,43.88
2023-02-17T23:30:52.315Z,42.28
2023-02-17T23:33:22.445Z,41.75
2023-02-17T23:36:22.628Z,43.47
2023-02-17T23:38:52.673Z,46.35
2023-02-17T23:41:20.827Z,47.65
2023-02-17T23:43:52.016Z,56.35
2023-02-17T23:46:20.847Z,48.63
2023-02-17T23:49:10.581Z,57.20
2023-02-17T23:51:40.510Z,57.42
2023-02-17T23:54:10.194Z,45.60
2023-02-17T23:56:40.362Z,46.58
2023-02-17T23:59:08.897Z,44.80
